Time;durP1;ratioP1;P1;durP2;ratioP2;P2;SDS_P1;SDS_P2;PMS_P1;PMS_P2;Temp;Humidity;BMP_temperature;BMP_pressure;BME280_temperature;BME280_humidity;BME280_pressure;Samples;Min_cycle;Max_cycle;Signal;HPM_P1;HPM_P2
2023/06/15 00:00:27;;;;;;;8.95;4.63;;;;;;;;;;5021120;28;20052;-62
2023/06/15 00:02:53;;;;;;;9.30;5.22;;;;;;;;;;5028326;28;20079;-61
2023/06/15 00:05:18;;;;;;;7.80;4.80;;;;;;;;;;5022555;28;20052;-61
2023/06/15 00:07:43;;;;;;;8.33;4.97;;;;;;;;;;5029109;28;20539;-61
2023/06/15 00:10:09;;;;;;;9.93;5.20;;;;;;;;;;5026962;28;20017;-61
2023/06/15 00:12:34;;;;;;;9.80;5.35;;;;;;;;;;5029375;28;20029;-61
2023/06/15 00:14:59;;;;;;;11.07;4.95;;;;;;;;;;5020643;28;20025;-61
2023/06/15 00:17:25;;;;;;;8.77;5.07;;;;;;;;;;5028135;28;20065;-60
2023/06/15 00:19:50;;;;;;;7.97;4.53;;;;;;;;;;5026995;28;20503;-61
2023/06/15 00:22:15;;;;;;;9.35;4.97;;;;;;;;;;5031209;28;20017;-61
2023/06/15 00:24:41;;;;;;;8.57;4.95;;;;;;;;;;5022644;28;20022;-61
2023/06/15 00:27:08;;;;;;;9.95;5.05;;;;;;;;;;5020090;28;20025;-61
2023/06/15 00:29:33;;;;;;;7.43;4.50;;;;;;;;;;5027188;28;21728;-61
2023/06/15 00:31:58;;;;;;;9.03;5.17;;;;;;;;;;5027913;28;20025;-61
2023/06/15 00:34:23;;;;;;;8.98;4.78;;;;;;;;;;5023049;28;20627;-61
2023/06/15 00:36:48;;;;;;;8.75;4.78;;;;;;;;;;5028530;28;20080;-62
2023/06/15 00:39:13;;;;;;;7.47;4.82;;;;;;;;;;5027067;28;20586;-61
2023/06/15 00:41:42;;;;;;;7.95;4.72;;;;;;;;;;5029252;28;20112;-61
2023/06/15 00:44:08;;;;;;;8.55;4.57;;;;;;;;;;5024729;28;20374;-61
2023/06/15 00:46:33;;;;;;;8.30;4.65;;;;;;;;;;5022124;28;20026;-61
2023/06/15 00:48:58;;;;;;;8.10;5.10;;;;;;;;;;5028662;28;20029;-62
2023/06/15 00:51:23;;;;;;;8.33;4.67;;;;;;;;;;5029810;28;20464;-61
2023/06/15 00:53:48;;;;;;;9.13;4.45;;;;;;;;;;5021107;28;20394;-61
2023/06/15 00:56:16;;;;;;;7.45;4.53;;;;;;;;;;5018407;28;20458;-61
2023/06/15 00:58:42;;;;;;;7.63;4.80;;;;;;;;;;5019843;28;20026;-61
2023/06/15 01:01:07;;;;;;;7.90;4.60;;;;;;;;;;5024455;28;20380;-61
2023/06/15 01:03:35;;;;;;;7.65;4.55;;;;;;;;;;5033758;28;20017;-61
2023/06/15 01:06:01;;;;;;;8.27;4.63;;;;;;;;;;5019982;28;20105;-61
2023/06/15 01:08:27;;;;;;;8.38;4.90;;;;;;;;;;5020546;28;20149;-61
2023/06/15 01:10:53;;;;;;;7.57;4.25;;;;;;;;;;5013675;28;20101;-61
2023/06/15 01:13:19;;;;;;;9.00;4.88;;;;;;;;;;5021615;28;20454;-61
2023/06/15 01:15:45;;;;;;;8.40;5.03;;;;;;;;;;5020401;28;20036;-61
2023/06/15 01:18:19;;;;;;;9.02;5.07;;;;;;;;;;5022141;28;20093;-62
2023/06/15 01:20:46;;;;;;;8.57;4.53;;;;;;;;;;5021705;28;20025;-61
2023/06/15 01:23:21;;;;;;;8.27;4.60;;;;;;;;;;5022109;28;20025;-61
2023/06/15 01:25:48;;;;;;;7.38;4.65;;;;;;;;;;5020252;28;21044;-61
2023/06/15 01:28:15;;;;;;;9.85;4.68;;;;;;;;;;5031964;28;20013;-61
2023/06/15 01:30:42;;;;;;;7.72;4.50;;;;;;;;;;5025972;28;20093;-61
2023/06/15 01:33:07;;;;;;;;;;;;;;;;;;5032714;28;20029;-61
2023/06/15 01:35:32;;;;;;;8.93;4.38;;;;;;;;;;5026875;28;19913;-61
2023/06/15 01:37:57;;;;;;;7.40;4.65;;;;;;;;;;5025297;28;20493;-62
2023/06/15 01:40:22;;;;;;;7.93;4.67;;;;;;;;;;5024081;28;20026;-61
2023/06/15 01:42:48;;;;;;;9.37;5.00;;;;;;;;;;5032792;28;20033;-61
2023/06/15 01:45:14;;;;;;;8.20;4.97;;;;;;;;;;5025173;28;20167;-61
2023/06/15 01:47:39;;;;;;;8.27;4.88;;;;;;;;;;5023015;28;20070;-61
2023/06/15 01:50:05;;;;;;;8.18;5.13;;;;;;;;;;5020986;28;20393;-61
2023/06/15 01:52:30;;;;;;;8.40;5.03;;;;;;;;;;5028710;28;20029;-61
2023/06/15 01:54:55;;;;;;;10.98;5.97;;;;;;;;;;5028480;28;20562;-61
2023/06/15 01:57:21;;;;;;;9.37;5.27;;;;;;;;;;5028074;28;20036;-61
2023/06/15 01:59:46;;;;;;;8.07;5.22;;;;;;;;;;5022038;28;20440;-60
2023/06/15 02:02:12;;;;;;;9.20;4.97;;;;;;;;;;5021730;28;20029;-61
2023/06/15 02:04:37;;;;;;;8.23;4.78;;;;;;;;;;5021457;28;20026;-63
2023/06/15 02:07:02;;;;;;;8.32;5.05;;;;;;;;;;5028874;28;20409;-61
2023/06/15 02:09:28;;;;;;;8.53;4.73;;;;;;;;;;5020804;28;20065;-61
2023/06/15 02:11:53;;;;;;;7.00;4.40;;;;;;;;;;5028412;28;20108;-60
2023/06/15 02:14:18;;;;;;;10.73;5.50;;;;;;;;;;5021089;28;20049;-61
2023/06/15 02:16:43;;;;;;;8.53;4.80;;;;;;;;;;5025722;28;20040;-61
2023/06/15 02:19:09;;;;;;;9.65;5.10;;;;;;;;;;5025844;28;20543;-61
2023/06/15 02:21:34;;;;;;;8.20;4.75;;;;;;;;;;5025303;28;20025;-61
2023/06/15 02:23:59;;;;;;;9.07;5.23;;;;;;;;;;5025207;28;20053;-62
2023/06/15 02:26:25;;;;;;;8.70;5.37;;;;;;;;;;5022078;28;20068;-62
2023/06/15 02:28:50;;;;;;;11.18;5.22;;;;;;;;;;5030447;28;20108;-61
2023/06/15 02:31:15;;;;;;;8.43;4.60;;;;;;;;;;5025864;28;20104;-60
2023/06/15 02:33:41;;;;;;;7.67;4.47;;;;;;;;;;5022029;28;20036;-61
2023/06/15 02:36:06;;;;;;;8.10;4.73;;;;;;;;;;5020309;28;20099;-60
2023/06/15 02:38:31;;;;;;;7.60;4.60;;;;;;;;;;5020427;28;20101;-60
2023/06/15 02:40:56;;;;;;;8.65;5.18;;;;;;;;;;5021332;28;20022;-61
2023/06/15 02:43:21;;;;;;;8.27;4.63;;;;;;;;;;5029288;28;20535;-61
2023/06/15 02:45:46;;;;;;;9.20;4.88;;;;;;;;;;5027645;28;20061;-61
2023/06/15 02:48:12;;;;;;;8.10;4.82;;;;;;;;;;5022053;28;20033;-63
2023/06/15 02:50:37;;;;;;;8.07;4.90;;;;;;;;;;5025009;28;20448;-62
2023/06/15 02:53:02;;;;;;;7.95;4.63;;;;;;;;;;5021074;28;20088;-62
2023/06/15 02:55:27;;;;;;;9.23;4.90;;;;;;;;;;5022712;28;20478;-61
2023/06/15 02:57:53;;;;;;;9.18;4.90;;;;;;;;;;5020979;28;20071;-60
2023/06/15 03:00:19;;;;;;;8.18;4.55;;;;;;;;;;5027219;28;20033;-60
2023/06/15 03:02:44;;;;;;;7.75;4.85;;;;;;;;;;5022110;28;20063;-61
2023/06/15 03:05:09;;;;;;;8.02;4.88;;;;;;;;;;5022539;28;20025;-60
2023/06/15 03:07:34;;;;;;;9.33;5.00;;;;;;;;;;5022630;28;20531;-61
2023/06/15 03:10:00;;;;;;;8.30;5.10;;;;;;;;;;5021062;28;20021;-60
2023/06/15 03:12:25;;;;;;;8.80;4.97;;;;;;;;;;5013928;28;20087;-60
2023/06/15 03:14:50;;;;;;;7.70;4.75;;;;;;;;;;5022683;28;20698;-61
2023/06/15 03:17:18;;;;;;;9.85;5.30;;;;;;;;;;5016804;28;20014;-62
2023/06/15 03:19:46;;;;;;;8.45;5.20;;;;;;;;;;5021332;28;20104;-60
2023/06/15 03:22:11;;;;;;;8.95;5.38;;;;;;;;;;5025406;28;20037;-63
2023/06/15 03:24:37;;;;;;;9.70;5.28;;;;;;;;;;5026070;28;20025;-63
2023/06/15 03:27:03;;;;;;;8.57;5.20;;;;;;;;;;5019166;28;20013;-62
2023/06/15 03:29:29;;;;;;;9.40;5.53;;;;;;;;;;5021477;28;20533;-62
2023/06/15 03:31:54;;;;;;;8.18;4.85;;;;;;;;;;5027750;28;20064;-62
2023/06/15 03:34:20;;;;;;;9.33;4.90;;;;;;;;;;5024451;28;20414;-62
2023/06/15 03:36:45;;;;;;;8.60;4.87;;;;;;;;;;5029301;28;20029;-63
2023/06/15 03:39:10;;;;;;;9.82;4.85;;;;;;;;;;5016762;28;20085;-62
2023/06/15 03:41:37;;;;;;;9.68;5.70;;;;;;;;;;5027638;28;20040;-62
2023/06/15 03:44:02;;;;;;;7.95;4.95;;;;;;;;;;5025025;28;20018;-62
2023/06/15 03:46:28;;;;;;;8.00;4.68;;;;;;;;;;5021622;28;20022;-63
2023/06/15 03:48:53;;;;;;;10.80;5.00;;;;;;;;;;5013551;28;20025;-62
2023/06/15 03:51:18;;;;;;;8.85;5.07;;;;;;;;;;5026774;28;20433;-62
2023/06/15 03:53:43;;;;;;;8.60;5.38;;;;;;;;;;5024759;28;20021;-63
2023/06/15 03:56:09;;;;;;;8.07;5.20;;;;;;;;;;5023690;28;20029;-62
2023/06/15 03:58:34;;;;;;;7.50;4.50;;;;;;;;;;5018345;28;20030;-62
2023/06/15 04:01:00;;;;;;;7.63;4.60;;;;;;;;;;5028090;28;20014;-62
2023/06/15 04:03:26;;;;;;;7.82;4.65;;;;;;;;;;5027550;28;20070;-62
2023/06/15 04:05:51;;;;;;;9.77;4.95;;;;;;;;;;5016901;28;20068;-62
2023/06/15 04:08:16;;;;;;;8.13;5.05;;;;;;;;;;5017890;28;20022;-62
2023/06/15 04:10:41;;;;;;;13.43;5.07;;;;;;;;;;5023979;28;20040;-62
2023/06/15 04:13:06;;;;;;;10.50;5.37;;;;;;;;;;5025358;28;20488;-62
2023/06/15 04:15:32;;;;;;;8.63;4.90;;;;;;;;;;5021404;28;20025;-62
2023/06/15 04:18:00;;;;;;;7.87;4.90;;;;;;;;;;5023983;28;20095;-62
2023/06/15 04:20:27;;;;;;;7.25;4.20;;;;;;;;;;5018541;28;20580;-62
2023/06/15 04:22:52;;;;;;;8.48;5.10;;;;;;;;;;5021637;28;20028;-63
2023/06/15 04:25:17;;;;;;;9.87;4.83;;;;;;;;;;5024761;28;20017;-63
2023/06/15 04:27:44;;;;;;;9.30;5.23;;;;;;;;;;5024649;28;20109;-63
2023/06/15 04:30:10;;;;;;;7.65;4.75;;;;;;;;;;5017889;28;20096;-62
2023/06/15 04:32:36;;;;;;;9.48;5.22;;;;;;;;;;5026251;28;20467;-62
2023/06/15 04:35:01;;;;;;;9.55;5.47;;;;;;;;;;5025072;28;20024;-63
2023/06/15 04:37:28;;;;;;;8.20;4.37;;;;;;;;;;5025893;28;20017;-62
2023/06/15 04:39:54;;;;;;;8.32;5.38;;;;;;;;;;5023269;28;20032;-62
2023/06/15 04:42:19;;;;;;;9.68;5.80;;;;;;;;;;5018929;28;20425;-62
2023/06/15 04:44:45;;;;;;;8.90;5.60;;;;;;;;;;5021783;28;20022;-62
2023/06/15 04:47:10;;;;;;;9.75;5.32;;;;;;;;;;5031645;28;20024;-63
2023/06/15 04:49:35;;;;;;;9.65;5.30;;;;;;;;;;5011153;28;20041;-62
2023/06/15 04:52:00;;;;;;;8.90;4.95;;;;;;;;;;5014975;28;20374;-62
2023/06/15 04:54:25;;;;;;;9.23;5.28;;;;;;;;;;5011359;28;20060;-62
2023/06/15 04:56:51;;;;;;;9.80;5.47;;;;;;;;;;5021309;28;20013;-62
2023/06/15 04:59:16;;;;;;;9.43;5.23;;;;;;;;;;5019947;28;20139;-63
2023/06/15 05:01:41;;;;;;;13.32;5.18;;;;;;;;;;5029104;28;20029;-63
2023/06/15 05:04:06;;;;;;;13.10;5.18;;;;;;;;;;5020104;28;20389;-63
2023/06/15 05:06:31;;;;;;;8.23;5.10;;;;;;;;;;5023235;28;20040;-62
2023/06/15 05:08:56;;;;;;;9.35;4.90;;;;;;;;;;5026523;28;20022;-62
2023/06/15 05:11:22;;;;;;;8.82;4.57;;;;;;;;;;5017143;28;20065;-62
2023/06/15 05:13:47;;;;;;;10.67;5.17;;;;;;;;;;5022460;28;20440;-63
2023/06/15 05:16:12;;;;;;;10.93;5.30;;;;;;;;;;5025759;28;20022;-60
2023/06/15 05:18:38;;;;;;;9.93;4.88;;;;;;;;;;5025040;28;20036;-62
2023/06/15 05:21:03;;;;;;;9.10;4.53;;;;;;;;;;5037291;28;20363;-62
2023/06/15 05:23:28;;;;;;;7.80;4.77;;;;;;;;;;5020249;28;20022;-63
2023/06/15 05:25:54;;;;;;;10.93;4.70;;;;;;;;;;5041125;28;20373;-63
2023/06/15 05:28:19;;;;;;;13.60;5.60;;;;;;;;;;5048578;28;20017;-62
2023/06/15 05:30:44;;;;;;;11.37;5.50;;;;;;;;;;5031456;28;20460;-60
2023/06/15 05:33:10;;;;;;;10.48;5.65;;;;;;;;;;5033344;28;20026;-61
2023/06/15 05:35:35;;;;;;;11.67;4.67;;;;;;;;;;5033247;28;20342;-61
2023/06/15 05:38:00;;;;;;;10.93;5.20;;;;;;;;;;5033208;28;20018;-61
2023/06/15 05:40:25;;;;;;;10.55;5.03;;;;;;;;;;5028783;28;20143;-60
2023/06/15 05:42:50;;;;;;;9.27;5.20;;;;;;;;;;5032773;28;20029;-61
2023/06/15 05:45:17;;;;;;;9.18;4.82;;;;;;;;;;5033179;28;20034;-60
2023/06/15 05:47:42;;;;;;;8.38;4.88;;;;;;;;;;5019434;28;20036;-60
2023/06/15 05:50:08;;;;;;;12.70;5.50;;;;;;;;;;5025767;28;20029;-63
2023/06/15 05:52:33;;;;;;;11.35;5.90;;;;;;;;;;5018536;28;20556;-63
2023/06/15 05:54:58;;;;;;;12.38;5.15;;;;;;;;;;5031086;28;20040;-63
2023/06/15 05:57:23;;;;;;;7.68;4.70;;;;;;;;;;5021953;28;20065;-61
2023/06/15 05:59:48;;;;;;;10.52;5.40;;;;;;;;;;5025070;28;20498;-61
2023/06/15 06:02:14;;;;;;;9.18;5.05;;;;;;;;;;5038623;28;20014;-61
2023/06/15 06:04:39;;;;;;;8.50;4.90;;;;;;;;;;5036575;28;20056;-60
2023/06/15 06:07:05;;;;;;;8.83;4.77;;;;;;;;;;5027539;28;20401;-61
2023/06/15 06:09:30;;;;;;;;;;;;;;;;;;5034879;28;20477;-61
2023/06/15 06:11:55;;;;;;;10.50;5.30;;;;;;;;;;5041447;28;19919;-61
2023/06/15 06:14:21;;;;;;;9.65;5.55;;;;;;;;;;5029668;28;20265;-62
2023/06/15 06:16:46;;;;;;;11.50;5.63;;;;;;;;;;5028130;28;20041;-62
2023/06/15 06:19:11;;;;;;;7.23;4.33;;;;;;;;;;5024937;28;20417;-62
2023/06/15 06:21:36;;;;;;;11.93;5.17;;;;;;;;;;5045615;28;20032;-62
2023/06/15 06:24:02;;;;;;;7.72;4.80;;;;;;;;;;5035507;28;20022;-62
2023/06/15 06:26:27;;;;;;;8.07;5.00;;;;;;;;;;5029951;28;20417;-62
2023/06/15 06:28:53;;;;;;;9.00;5.22;;;;;;;;;;5033129;28;20030;-62
2023/06/15 06:31:18;;;;;;;11.50;4.97;;;;;;;;;;5026579;28;20040;-63
2023/06/15 06:33:43;;;;;;;8.85;5.18;;;;;;;;;;5023587;28;20072;-62
2023/06/15 06:36:08;;;;;;;12.37;5.23;;;;;;;;;;5034036;28;20108;-62
2023/06/15 06:38:34;;;;;;;10.80;5.60;;;;;;;;;;5030542;28;20025;-62
2023/06/15 06:40:59;;;;;;;9.25;5.30;;;;;;;;;;5023163;28;20424;-62
2023/06/15 06:43:24;;;;;;;9.50;5.77;;;;;;;;;;5035749;28;20033;-62
2023/06/15 06:45:49;;;;;;;10.18;5.40;;;;;;;;;;5033913;28;20456;-62
2023/06/15 06:48:14;;;;;;;10.65;5.43;;;;;;;;;;5030602;28;20033;-63
2023/06/15 06:50:40;;;;;;;11.30;5.17;;;;;;;;;;5034070;28;20061;-62
2023/06/15 06:53:05;;;;;;;9.17;5.83;;;;;;;;;;5029880;28;20618;-62
2023/06/15 06:55:30;;;;;;;9.95;5.53;;;;;;;;;;5032661;28;20017;-62
2023/06/15 06:58:00;;;;;;;9.48;5.45;;;;;;;;;;5027477;28;20083;-62
2023/06/15 07:00:25;;;;;;;8.25;5.10;;;;;;;;;;5029946;28;20037;-60
2023/06/15 07:02:50;;;;;;;8.27;5.00;;;;;;;;;;5040309;28;20035;-61
2023/06/15 07:05:15;;;;;;;11.88;6.20;;;;;;;;;;5022977;28;20128;-61
2023/06/15 07:07:40;;;;;;;10.07;5.50;;;;;;;;;;5027134;28;20489;-61
2023/06/15 07:10:06;;;;;;;14.03;5.57;;;;;;;;;;5036308;28;20056;-61
2023/06/15 07:12:31;;;;;;;9.20;4.97;;;;;;;;;;5027488;28;20155;-61
2023/06/15 07:14:56;;;;;;;10.80;5.22;;;;;;;;;;5031572;28;20441;-61
2023/06/15 07:17:21;;;;;;;8.50;4.90;;;;;;;;;;5031459;28;20029;-61
2023/06/15 07:19:46;;;;;;;9.40;5.03;;;;;;;;;;5030672;28;20026;-61
2023/06/15 07:22:11;;;;;;;9.43;5.43;;;;;;;;;;5030827;28;20025;-61
2023/06/15 07:24:37;;;;;;;11.80;5.25;;;;;;;;;;5031665;28;20488;-61
2023/06/15 07:27:02;;;;;;;9.87;5.33;;;;;;;;;;5030202;28;20030;-61
2023/06/15 07:29:27;;;;;;;9.47;4.87;;;;;;;;;;5030960;28;20494;-61
2023/06/15 07:31:53;;;;;;;10.13;5.32;;;;;;;;;;5025411;28;20048;-61
2023/06/15 07:34:18;;;;;;;8.85;5.03;;;;;;;;;;5031037;28;20469;-61
2023/06/15 07:36:43;;;;;;;8.97;5.40;;;;;;;;;;5031216;28;20079;-61
2023/06/15 07:39:08;;;;;;;9.75;5.13;;;;;;;;;;5030947;28;20021;-61
2023/06/15 07:41:33;;;;;;;11.32;5.50;;;;;;;;;;5031324;28;20481;-61
2023/06/15 07:43:58;;;;;;;9.30;5.10;;;;;;;;;;5019514;28;20041;-61
2023/06/15 07:46:23;;;;;;;10.73;5.05;;;;;;;;;;5026965;28;20464;-60
2023/06/15 07:48:49;;;;;;;11.33;5.17;;;;;;;;;;5029780;28;20029;-62
2023/06/15 07:51:14;;;;;;;9.83;5.30;;;;;;;;;;5030515;28;20020;-61
2023/06/15 07:53:39;;;;;;;8.50;5.20;;;;;;;;;;5027306;28;20029;-62
2023/06/15 07:56:05;;;;;;;9.40;5.03;;;;;;;;;;5030643;28;20469;-61
2023/06/15 07:58:30;;;;;;;12.55;5.38;;;;;;;;;;5030862;28;20034;-61
2023/06/15 08:00:55;;;;;;;12.87;5.77;;;;;;;;;;5029076;28;20045;-61
2023/06/15 08:03:20;;;;;;;9.43;5.37;;;;;;;;;;5030533;28;20060;-62
2023/06/15 08:05:45;;;;;;;9.88;5.63;;;;;;;;;;5030615;28;20060;-61
2023/06/15 08:08:11;;;;;;;8.52;5.00;;;;;;;;;;5029457;28;20029;-61
2023/06/15 08:10:36;;;;;;;11.10;5.33;;;;;;;;;;5023543;28;20025;-61
2023/06/15 08:13:01;;;;;;;11.20;4.73;;;;;;;;;;5030528;28;20025;-61
2023/06/15 08:15:26;;;;;;;8.95;4.65;;;;;;;;;;5030863;28;20500;-61
2023/06/15 08:17:52;;;;;;;7.90;4.67;;;;;;;;;;5031016;28;20033;-61
2023/06/15 08:20:19;;;;;;;9.82;5.13;;;;;;;;;;5030296;28;20481;-62
2023/06/15 08:22:44;;;;;;;8.65;4.20;;;;;;;;;;5030168;28;20100;-62
2023/06/15 08:25:12;;;;;;;9.05;4.47;;;;;;;;;;5028468;28;20098;-62
2023/06/15 08:27:38;;;;;;;7.65;3.20;;;;;;;;;;5027885;28;20025;-62
2023/06/15 08:30:03;;;;;;;5.75;3.25;;;;;;;;;;5030161;28;20380;-62
2023/06/15 08:32:29;;;;;;;7.37;3.03;;;;;;;;;;5030389;28;20167;-62
2023/06/15 08:34:55;;;;;;;6.00;3.20;;;;;;;;;;5033331;28;20017;-61
2023/06/15 08:37:20;;;;;;;5.80;3.30;;;;;;;;;;5034887;28;20026;-61
2023/06/15 08:39:45;;;;;;;10.00;3.87;;;;;;;;;;5025848;28;20435;-61
2023/06/15 08:42:10;;;;;;;9.07;3.63;;;;;;;;;;5032751;28;20013;-62
2023/06/15 08:44:36;;;;;;;6.15;3.10;;;;;;;;;;5035100;28;20057;-60
2023/06/15 08:47:05;;;;;;;7.05;2.75;;;;;;;;;;5034291;28;20087;-60
2023/06/15 08:49:30;;;;;;;6.28;2.92;;;;;;;;;;5024746;28;20032;-61
2023/06/15 08:51:56;;;;;;;7.93;3.40;;;;;;;;;;5033801;28;20108;-61
2023/06/15 08:54:22;;;;;;;;;;;;;;;;;;5034773;28;20160;-61
2023/06/15 08:56:47;;;;;;;8.00;3.10;;;;;;;;;;5034626;28;20344;-62
2023/06/15 08:59:12;;;;;;;11.17;3.07;;;;;;;;;;5033645;28;20052;-61
2023/06/15 09:01:43;;;;;;;6.80;2.85;;;;;;;;;;5026091;28;20032;-61
2023/06/15 09:04:08;;;;;;;6.40;2.88;;;;;;;;;;5033988;28;20096;-62
2023/06/15 09:06:33;;;;;;;10.67;3.00;;;;;;;;;;5034181;28;20048;-62
2023/06/15 09:08:59;;;;;;;6.72;2.50;;;;;;;;;;5033714;28;20017;-60
2023/06/15 09:11:24;;;;;;;7.03;2.97;;;;;;;;;;5034047;28;20258;-60
2023/06/15 09:13:50;;;;;;;5.25;2.70;;;;;;;;;;5033595;28;20018;-61
2023/06/15 09:16:15;;;;;;;9.05;2.83;;;;;;;;;;5032710;28;20079;-60
2023/06/15 09:18:41;;;;;;;5.18;2.60;;;;;;;;;;5033468;28;20465;-61
2023/06/15 09:21:10;;;;;;;8.23;2.80;;;;;;;;;;5033379;28;20017;-62
2023/06/15 09:23:35;;;;;;;6.95;3.08;;;;;;;;;;5033809;28;20025;-61
2023/06/15 09:26:00;;;;;;;6.72;2.90;;;;;;;;;;5033759;28;20028;-61
2023/06/15 09:28:28;;;;;;;7.15;2.85;;;;;;;;;;5033337;28;20076;-60
2023/06/15 09:30:55;;;;;;;6.13;3.20;;;;;;;;;;5033316;28;20013;-60
2023/06/15 09:33:21;;;;;;;9.80;3.40;;;;;;;;;;5031455;28;20021;-60
2023/06/15 09:35:54;;;;;;;9.57;3.08;;;;;;;;;;5030078;28;20021;-60
2023/06/15 09:38:19;;;;;;;7.95;2.90;;;;;;;;;;5033186;28;20005;-61
2023/06/15 09:40:45;;;;;;;9.67;3.27;;;;;;;;;;5032540;28;20043;-61
2023/06/15 09:43:12;;;;;;;6.30;3.07;;;;;;;;;;5019006;28;20053;-61
2023/06/15 09:45:47;;;;;;;6.18;2.75;;;;;;;;;;5029744;28;20021;-61
2023/06/15 09:48:12;;;;;;;6.90;3.17;;;;;;;;;;5033746;28;20080;-61
2023/06/15 09:50:38;;;;;;;9.38;3.10;;;;;;;;;;5032926;28;20025;-61
2023/06/15 09:53:03;;;;;;;7.13;3.28;;;;;;;;;;5032946;28;20033;-60
2023/06/15 09:55:28;;;;;;;5.87;3.00;;;;;;;;;;5022841;28;20052;-60
2023/06/15 09:57:54;;;;;;;9.05;3.15;;;;;;;;;;5032810;28;20104;-61
2023/06/15 10:00:19;;;;;;;7.07;3.38;;;;;;;;;;5032670;28;20072;-60
2023/06/15 10:02:45;;;;;;;8.50;3.20;;;;;;;;;;5030572;28;20025;-60
2023/06/15 10:05:14;;;;;;;8.27;3.60;;;;;;;;;;5034236;28;20018;-60
2023/06/15 10:07:40;;;;;;;7.00;3.15;;;;;;;;;;5034847;28;20021;-61
2023/06/15 10:10:06;;;;;;;6.22;3.10;;;;;;;;;;5032831;28;20037;-60
2023/06/15 10:12:32;;;;;;;11.65;3.20;;;;;;;;;;5032916;28;20500;-60
2023/06/15 10:14:58;;;;;;;8.40;3.35;;;;;;;;;;5032882;28;20033;-61
2023/06/15 10:17:32;;;;;;;7.82;3.38;;;;;;;;;;5028229;28;20029;-61
2023/06/15 10:19:59;;;;;;;6.43;3.22;;;;;;;;;;5028065;28;20104;-60
2023/06/15 10:22:25;;;;;;;7.88;3.55;;;;;;;;;;5032557;28;20017;-61
2023/06/15 10:24:51;;;;;;;7.03;2.90;;;;;;;;;;5032890;28;20386;-61
2023/06/15 10:27:17;;;;;;;9.05;4.20;;;;;;;;;;5032095;28;20469;-61
2023/06/15 10:29:58;;;;;;;8.82;3.63;;;;;;;;;;5031906;28;20013;-60
2023/06/15 10:32:35;;;;;;;7.93;3.55;;;;;;;;;;5031280;28;20025;-60
2023/06/15 10:35:18;;;;;;;6.15;3.33;;;;;;;;;;5024388;28;20121;-60
2023/06/15 10:37:48;;;;;;;9.18;3.10;;;;;;;;;;5032173;28;20434;-60
2023/06/15 10:40:24;;;;;;;7.65;3.05;;;;;;;;;;5031779;28;20025;-60
2023/06/15 10:42:49;;;;;;;9.27;3.40;;;;;;;;;;5031977;28;20536;-60
2023/06/15 10:45:23;;;;;;;7.30;3.40;;;;;;;;;;5032319;28;20069;-61
2023/06/15 10:47:49;;;;;;;8.50;3.35;;;;;;;;;;5032127;28;20052;-61
2023/06/15 10:50:14;;;;;;;10.18;3.15;;;;;;;;;;5028031;28;20461;-61
2023/06/15 10:52:39;;;;;;;8.27;3.00;;;;;;;;;;5031413;28;20021;-61
2023/06/15 10:55:09;;;;;;;7.13;3.10;;;;;;;;;;5032087;28;20112;-60
2023/06/15 10:57:35;;;;;;;6.00;2.90;;;;;;;;;;5031787;28;20028;-61
2023/06/15 11:00:00;;;;;;;8.95;3.40;;;;;;;;;;5031438;28;20101;-61
2023/06/15 11:02:28;;;;;;;7.53;3.30;;;;;;;;;;5020249;28;20405;-61
2023/06/15 11:05:00;;;;;;;12.60;3.67;;;;;;;;;;5031437;28;21007;-61
2023/06/15 11:07:25;;;;;;;;;;;;;;;;;;5032592;28;20167;-61
2023/06/15 11:09:50;;;;;;;6.70;2.75;;;;;;;;;;5031340;28;19916;-61
2023/06/15 11:12:31;;;;;;;6.70;2.80;;;;;;;;;;5031831;28;20032;-61
2023/06/15 11:14:59;;;;;;;4.75;2.58;;;;;;;;;;5031373;28;20014;-61
2023/06/15 11:17:27;;;;;;;6.80;2.92;;;;;;;;;;5029684;28;20022;-60
2023/06/15 11:19:52;;;;;;;8.05;3.20;;;;;;;;;;5030777;28;20056;-61
2023/06/15 11:22:25;;;;;;;8.93;3.10;;;;;;;;;;5031767;28;20481;-61
2023/06/15 11:24:53;;;;;;;6.05;2.78;;;;;;;;;;5030433;28;20021;-61
2023/06/15 11:27:19;;;;;;;8.68;3.20;;;;;;;;;;5023575;28;20112;-60
2023/06/15 11:29:44;;;;;;;7.38;3.03;;;;;;;;;;5013345;28;20153;-61
2023/06/15 11:32:10;;;;;;;6.37;2.83;;;;;;;;;;5031029;28;20020;-62
2023/06/15 11:34:36;;;;;;;6.78;3.22;;;;;;;;;;5031385;28;20022;-61
2023/06/15 11:37:01;;;;;;;;;;;;;;;;;;5032100;28;20017;-61
2023/06/15 11:39:27;;;;;;;6.63;3.00;;;;;;;;;;5031395;28;20353;-61
2023/06/15 11:41:56;;;;;;;6.85;3.08;;;;;;;;;;5031813;28;20029;-61
2023/06/15 11:44:22;;;;;;;8.23;3.03;;;;;;;;;;5027978;28;20030;-62
2023/06/15 11:46:57;;;;;;;8.05;2.70;;;;;;;;;;5029349;28;20525;-61
2023/06/15 11:49:22;;;;;;;8.18;3.10;;;;;;;;;;5030101;28;20022;-60
2023/06/15 11:51:50;;;;;;;7.47;2.50;;;;;;;;;;5030847;28;20377;-60
2023/06/15 11:54:15;;;;;;;5.72;2.42;;;;;;;;;;5031263;28;20538;-60
2023/06/15 11:56:46;;;;;;;6.93;2.57;;;;;;;;;;5031045;28;20114;-61
2023/06/15 11:59:15;;;;;;;7.38;2.60;;;;;;;;;;5030563;28;20104;-61
2023/06/15 12:01:41;;;;;;;5.68;2.50;;;;;;;;;;5024033;28;20033;-61
2023/06/15 12:04:10;;;;;;;5.88;2.58;;;;;;;;;;5023956;28;20101;-62
2023/06/15 12:06:35;;;;;;;6.25;2.45;;;;;;;;;;5030905;28;20025;-62
2023/06/15 12:09:00;;;;;;;9.10;3.00;;;;;;;;;;5029611;28;20104;-62
2023/06/15 12:11:26;;;;;;;5.47;2.55;;;;;;;;;;5030643;28;20053;-61
2023/06/15 12:13:51;;;;;;;9.40;2.80;;;;;;;;;;5030545;28;20024;-61
2023/06/15 12:16:16;;;;;;;6.87;2.83;;;;;;;;;;5029506;28;20484;-61
2023/06/15 12:18:41;;;;;;;7.72;2.85;;;;;;;;;;5030454;28;20037;-61
2023/06/15 12:21:07;;;;;;;8.30;2.70;;;;;;;;;;5030445;28;20101;-61
2023/06/15 12:23:33;;;;;;;7.88;3.20;;;;;;;;;;5031007;28;20025;-61
2023/06/15 12:26:01;;;;;;;8.15;2.88;;;;;;;;;;5022821;28;20036;-61
2023/06/15 12:28:27;;;;;;;6.18;2.30;;;;;;;;;;5029323;28;20075;-61
2023/06/15 12:30:56;;;;;;;6.45;2.63;;;;;;;;;;5030332;28;20131;-60
2023/06/15 12:33:26;;;;;;;8.70;2.50;;;;;;;;;;5024522;28;20101;-61
2023/06/15 12:35:51;;;;;;;7.65;2.63;;;;;;;;;;5035130;28;20507;-61
2023/06/15 12:38:16;;;;;;;6.45;2.33;;;;;;;;;;5031696;28;20014;-61
2023/06/15 12:40:43;;;;;;;5.38;2.33;;;;;;;;;;5033984;28;20524;-61
2023/06/15 12:43:08;;;;;;;;;;;;;;;;;;5027213;28;20080;-61
2023/06/15 12:45:33;;;;;;;7.20;2.40;;;;;;;;;;5026965;28;19909;-61
2023/06/15 12:47:59;;;;;;;7.50;2.73;;;;;;;;;;5030120;28;20104;-61
2023/06/15 12:50:24;;;;;;;6.53;2.78;;;;;;;;;;5028870;28;20017;-61
2023/06/15 12:52:50;;;;;;;9.73;3.20;;;;;;;;;;5029866;28;20436;-61
2023/06/15 12:55:15;;;;;;;9.95;2.83;;;;;;;;;;5033229;28;20082;-61
2023/06/15 12:57:41;;;;;;;6.22;2.90;;;;;;;;;;5036790;28;20021;-61
2023/06/15 13:00:06;;;;;;;7.77;3.10;;;;;;;;;;5024897;28;20100;-61
2023/06/15 13:02:32;;;;;;;8.57;2.92;;;;;;;;;;5026735;28;20031;-61
2023/06/15 13:05:02;;;;;;;9.75;3.33;;;;;;;;;;5025271;28;20070;-61
2023/06/15 13:07:31;;;;;;;8.52;3.38;;;;;;;;;;5024261;28;20049;-62
2023/06/15 13:09:56;;;;;;;7.38;3.13;;;;;;;;;;5021292;28;20030;-61
2023/06/15 13:12:21;;;;;;;6.30;3.25;;;;;;;;;;5025813;28;20473;-61
2023/06/15 13:14:46;;;;;;;5.93;3.10;;;;;;;;;;5031603;28;20417;-61
2023/06/15 13:17:11;;;;;;;7.43;2.88;;;;;;;;;;5030037;28;20025;-61
2023/06/15 13:19:37;;;;;;;7.75;2.92;;;;;;;;;;5030863;28;20051;-61
2023/06/15 13:22:02;;;;;;;6.70;2.85;;;;;;;;;;5040067;28;20533;-61
2023/06/15 13:24:27;;;;;;;6.07;2.60;;;;;;;;;;5036932;28;20017;-62
2023/06/15 13:26:52;;;;;;;5.78;2.60;;;;;;;;;;5034136;28;20037;-62
2023/06/15 13:29:17;;;;;;;7.13;2.55;;;;;;;;;;5023159;28;20013;-62
2023/06/15 13:31:42;;;;;;;6.22;2.50;;;;;;;;;;5029280;28;20040;-62
2023/06/15 13:34:07;;;;;;;6.10;2.22;;;;;;;;;;5023491;28;20097;-62
2023/06/15 13:36:33;;;;;;;5.40;2.60;;;;;;;;;;5024594;28;20420;-61
2023/06/15 13:38:58;;;;;;;5.43;2.60;;;;;;;;;;5017374;28;20075;-62
2023/06/15 13:41:23;;;;;;;4.65;2.15;;;;;;;;;;5021317;28;20021;-62
2023/06/15 13:43:48;;;;;;;4.93;2.07;;;;;;;;;;5026401;28;20108;-62
2023/06/15 13:46:13;;;;;;;5.43;2.00;;;;;;;;;;5034993;28;20021;-62
2023/06/15 13:48:38;;;;;;;4.70;2.10;;;;;;;;;;5027115;28;20021;-61
2023/06/15 13:51:04;;;;;;;4.03;1.80;;;;;;;;;;5017812;28;20022;-62
2023/06/15 13:53:29;;;;;;;4.63;1.77;;;;;;;;;;5021991;28;20033;-62
2023/06/15 13:55:54;;;;;;;4.72;1.85;;;;;;;;;;5031863;28;20472;-62
2023/06/15 13:58:19;;;;;;;5.13;2.10;;;;;;;;;;5025720;28;20022;-61
2023/06/15 14:00:44;;;;;;;6.87;1.93;;;;;;;;;;5018456;28;20014;-62
2023/06/15 14:03:09;;;;;;;4.82;1.80;;;;;;;;;;5032382;28;20402;-61
2023/06/15 14:05:34;;;;;;;6.15;1.80;;;;;;;;;;5015356;28;20104;-62
2023/06/15 14:08:00;;;;;;;4.30;2.05;;;;;;;;;;5027737;28;20029;-61
2023/06/15 14:10:26;;;;;;;4.77;1.67;;;;;;;;;;5030557;28;20052;-61
2023/06/15 14:12:51;;;;;;;5.47;2.00;;;;;;;;;;5029553;28;20092;-62
2023/06/15 14:15:17;;;;;;;4.95;1.90;;;;;;;;;;5027387;28;20017;-60
2023/06/15 14:17:42;;;;;;;5.38;2.10;;;;;;;;;;5029095;28;20105;-62
2023/06/15 14:20:08;;;;;;;6.87;2.30;;;;;;;;;;5034922;28;21492;-62
2023/06/15 14:22:33;;;;;;;5.45;2.00;;;;;;;;;;5040365;28;20465;-62
2023/06/15 14:24:58;;;;;;;;;;;;;;;;;;5022045;28;20025;-61
2023/06/15 14:27:23;;;;;;;4.13;1.73;;;;;;;;;;5019511;28;19910;-62
2023/06/15 14:29:49;;;;;;;4.15;1.98;;;;;;;;;;5014242;28;20486;-62
2023/06/15 14:32:17;;;;;;;5.77;2.00;;;;;;;;;;5014672;28;20472;-62
2023/06/15 14:34:43;;;;;;;6.07;1.98;;;;;;;;;;5028225;28;20497;-62